sensor_id;sensor_type;location;lat;lon;timestamp;pressure;altitude;pressure_sealevel;temperature;humidity
33163;BME280;29282;45.656;11.302;2022-12-17T00:01:51;97585.91;;;18.21;49.08
33163;BME280;29282;45.656;11.302;2022-12-17T00:04:35;97591.03;;;18.23;49.11
33163;BME280;29282;45.656;11.302;2022-12-17T00:07:20;97589.47;;;18.22;48.94
33163;BME280;29282;45.656;11.302;2022-12-17T00:10:04;97593.00;;;18.22;49.08
33163;BME280;29282;45.656;11.302;2022-12-17T00:12:48;97592.19;;;18.22;48.88
33163;BME280;29282;45.656;11.302;2022-12-17T00:15:33;97596.88;;;18.21;48.90
33163;BME280;29282;45.656;11.302;2022-12-17T00:18:18;97596.53;;;18.23;48.83
33163;BME280;29282;45.656;11.302;2022-12-17T00:21:02;97599.63;;;18.21;49.00
33163;BME280;29282;45.656;11.302;2022-12-17T00:23:47;97603.97;;;18.22;49.02
33163;BME280;29282;45.656;11.302;2022-12-17T00:26:31;97605.53;;;18.23;48.89
33163;BME280;29282;45.656;11.302;2022-12-17T00:29:15;97595.72;;;18.22;48.98
33163;BME280;29282;45.656;11.302;2022-12-17T00:31:59;97600.06;;;18.23;48.92
33163;BME280;29282;45.656;11.302;2022-12-17T00:34:44;97602.38;;;18.21;48.82
33163;BME280;29282;45.656;11.302;2022-12-17T00:37:28;97603.97;;;18.22;48.80
33163;BME280;29282;45.656;11.302;2022-12-17T00:40:12;97599.63;;;18.21;48.93
33163;BME280;29282;45.656;11.302;2022-12-17T00:45:43;97607.50;;;18.23;48.84
33163;BME280;29282;45.656;11.302;2022-12-17T00:48:27;97609.44;;;18.22;48.89
33163;BME280;29282;45.656;11.302;2022-12-17T00:51:11;97602.38;;;18.21;48.92
33163;BME280;29282;45.656;11.302;2022-12-17T00:53:55;97605.91;;;18.22;48.83
33163;BME280;29282;45.656;11.302;2022-12-17T00:56:41;97608.66;;;18.22;48.67
33163;BME280;29282;45.656;11.302;2022-12-17T00:59:25;97609.44;;;18.22;48.81
33163;BME280;29282;45.656;11.302;2022-12-17T01:02:09;97612.97;;;18.23;48.70
33163;BME280;29282;45.656;11.302;2022-12-17T01:04:53;97621.19;;;18.23;48.80
33163;BME280;29282;45.656;11.302;2022-12-17T01:07:36;97620.84;;;18.24;48.65
33163;BME280;29282;45.656;11.302;2022-12-17T01:10:20;97624.75;;;18.23;48.68
33163;BME280;29282;45.656;11.302;2022-12-17T01:13:04;97626.31;;;18.24;48.73
33163;BME280;29282;45.656;11.302;2022-12-17T01:15:48;97628.72;;;18.26;48.78
33163;BME280;29282;45.656;11.302;2022-12-17T01:18:32;97627.47;;;18.23;48.53
33163;BME280;29282;45.656;11.302;2022-12-17T01:21:16;97622.78;;;18.24;48.59
33163;BME280;29282;45.656;11.302;2022-12-17T01:24:11;97628.38;;;18.27;48.59
33163;BME280;29282;45.656;11.302;2022-12-17T01:26:55;97625.63;;;18.27;48.37
33163;BME280;29282;45.656;11.302;2022-12-17T01:29:39;97628.03;;;18.29;48.52
33163;BME280;29282;45.656;11.302;2022-12-17T01:32:23;97628.81;;;18.29;48.54
33163;BME280;29282;45.656;11.302;2022-12-17T01:35:07;97630.78;;;18.29;48.46
33163;BME280;29282;45.656;11.302;2022-12-17T01:37:51;97639.34;;;18.27;48.53
33163;BME280;29282;45.656;11.302;2022-12-17T01:40:35;97640.50;;;18.26;48.57
33163;BME280;29282;45.656;11.302;2022-12-17T01:43:36;97636.16;;;18.25;48.51
33163;BME280;29282;45.656;11.302;2022-12-17T01:46:21;97641.66;;;18.25;48.46
33163;BME280;29282;45.656;11.302;2022-12-17T01:49:08;97656.94;;;18.26;48.31
33163;BME280;29282;45.656;11.302;2022-12-17T01:51:53;97659.22;;;18.24;48.56
33163;BME280;29282;45.656;11.302;2022-12-17T01:54:37;97663.59;;;18.25;48.66
33163;BME280;29282;45.656;11.302;2022-12-17T01:57:22;97672.59;;;18.26;48.40
33163;BME280;29282;45.656;11.302;2022-12-17T02:00:09;97661.97;;;18.24;48.33
33163;BME280;29282;45.656;11.302;2022-12-17T02:02:53;97666.66;;;18.24;48.30
33163;BME280;29282;45.656;11.302;2022-12-17T02:05:53;97668.59;;;18.23;48.27
33163;BME280;29282;45.656;11.302;2022-12-17T02:11:33;97674.19;;;18.27;48.35
33163;BME280;29282;45.656;11.302;2022-12-17T02:14:39;97677.28;;;18.25;48.29
33163;BME280;29282;45.656;11.302;2022-12-17T02:17:29;97680.03;;;18.25;48.17
33163;BME280;29282;45.656;11.302;2022-12-17T02:20:35;97684.38;;;18.26;48.21
33163;BME280;29282;45.656;11.302;2022-12-17T02:26:33;97683.91;;;18.24;48.46
33163;BME280;29282;45.656;11.302;2022-12-17T02:29:20;97696.81;;;18.24;48.26
33163;BME280;29282;45.656;11.302;2022-12-17T02:32:14;97701.19;;;18.25;48.35
33163;BME280;29282;45.656;11.302;2022-12-17T02:35:06;97703.09;;;18.24;48.20
33163;BME280;29282;45.656;11.302;2022-12-17T02:37:53;97711.31;;;18.24;48.29
33163;BME280;29282;45.656;11.302;2022-12-17T02:40:37;97707.78;;;18.24;48.20
33163;BME280;29282;45.656;11.302;2022-12-17T02:43:23;97711.69;;;18.23;48.35
33163;BME280;29282;45.656;11.302;2022-12-17T02:46:08;97700.72;;;18.23;48.37
33163;BME280;29282;45.656;11.302;2022-12-17T02:48:52;97701.50;;;18.23;48.23
33163;BME280;29282;45.656;11.302;2022-12-17T02:51:37;97698.78;;;18.23;48.09
33163;BME280;29282;45.656;11.302;2022-12-17T02:54:22;97713.28;;;18.24;48.15
33163;BME280;29282;45.656;11.302;2022-12-17T02:57:06;97710.53;;;18.24;48.24
33163;BME280;29282;45.656;11.302;2022-12-17T02:59:50;97710.19;;;18.25;47.96
33163;BME280;29282;45.656;11.302;2022-12-17T03:02:34;97724.69;;;18.26;48.11
33163;BME280;29282;45.656;11.302;2022-12-17T03:05:17;97711.31;;;18.24;47.99
33163;BME280;29282;45.656;11.302;2022-12-17T03:08:02;97718.75;;;18.24;48.17
33163;BME280;29282;45.656;11.302;2022-12-17T03:10:46;97723.91;;;18.25;47.95
33163;BME280;29282;45.656;11.302;2022-12-17T03:13:30;97726.97;;;18.24;48.13
33163;BME280;29282;45.656;11.302;2022-12-17T03:16:16;97731.34;;;18.25;47.98
33163;BME280;29282;45.656;11.302;2022-12-17T03:19:00;97740.00;;;18.27;48.06
33163;BME280;29282;45.656;11.302;2022-12-17T03:21:44;97735.78;;;18.29;47.96
33163;BME280;29282;45.656;11.302;2022-12-17T03:24:29;97735.78;;;18.29;47.80
33163;BME280;29282;45.656;11.302;2022-12-17T03:27:13;97737.38;;;18.30;47.85
33163;BME280;29282;45.656;11.302;2022-12-17T03:29:57;97737.72;;;18.29;47.99
33163;BME280;29282;45.656;11.302;2022-12-17T03:32:41;97736.56;;;18.30;47.91
33163;BME280;29282;45.656;11.302;2022-12-17T03:35:25;97746.41;;;18.31;47.72
33163;BME280;29282;45.656;11.302;2022-12-17T03:38:23;97749.16;;;18.31;47.81
33163;BME280;29282;45.656;11.302;2022-12-17T03:41:07;97747.91;;;18.28;47.61
33163;BME280;29282;45.656;11.302;2022-12-17T03:43:51;97750.66;;;18.28;47.86
33163;BME280;29282;45.656;11.302;2022-12-17T03:46:35;97753.81;;;18.30;47.65
33163;BME280;29282;45.656;11.302;2022-12-17T03:49:19;97760.47;;;18.29;47.63
33163;BME280;29282;45.656;11.302;2022-12-17T03:52:03;97760.47;;;18.29;47.65
33163;BME280;29282;45.656;11.302;2022-12-17T03:54:47;97763.19;;;18.29;47.65
33163;BME280;29282;45.656;11.302;2022-12-17T03:57:31;97766.41;;;18.31;47.59
33163;BME280;29282;45.656;11.302;2022-12-17T04:00:15;97769.94;;;18.32;47.73
33163;BME280;29282;45.656;11.302;2022-12-17T04:02:59;97775.31;;;18.28;47.71
33163;BME280;29282;45.656;11.302;2022-12-17T04:05:43;97770.63;;;18.29;47.77
33163;BME280;29282;45.656;11.302;2022-12-17T04:08:27;97766.63;;;18.26;47.73
33163;BME280;29282;45.656;11.302;2022-12-17T04:11:11;97777.59;;;18.26;47.71
33163;BME280;29282;45.656;11.302;2022-12-17T04:13:55;97776.81;;;18.26;47.81
33163;BME280;29282;45.656;11.302;2022-12-17T04:16:39;97781.50;;;18.25;47.89
33163;BME280;29282;45.656;11.302;2022-12-17T04:19:23;97783.09;;;18.26;47.83
33163;BME280;29282;45.656;11.302;2022-12-17T04:22:07;97781.50;;;18.25;47.85
33163;BME280;29282;45.656;11.302;2022-12-17T04:24:51;97790.84;;;18.24;47.74
33163;BME280;29282;45.656;11.302;2022-12-17T04:27:35;97793.59;;;18.24;47.87
33163;BME280;29282;45.656;11.302;2022-12-17T04:30:19;97802.63;;;18.25;47.71
33163;BME280;29282;45.656;11.302;2022-12-17T04:33:03;97806.50;;;18.24;47.73
33163;BME280;29282;45.656;11.302;2022-12-17T04:35:47;97807.28;;;18.24;47.63
33163;BME280;29282;45.656;11.302;2022-12-17T04:38:31;97818.63;;;18.23;47.84
33163;BME280;29282;45.656;11.302;2022-12-17T04:41:15;97829.22;;;18.24;47.90
33163;BME280;29282;45.656;11.302;2022-12-17T04:43:59;97830.38;;;18.23;47.96
33163;BME280;29282;45.656;11.302;2022-12-17T04:46:43;97834.72;;;18.24;47.65
33163;BME280;29282;45.656;11.302;2022-12-17T04:49:27;97845.25;;;18.22;47.64
33163;BME280;29282;45.656;11.302;2022-12-17T04:52:11;97844.56;;;18.25;47.83
33163;BME280;29282;45.656;11.302;2022-12-17T04:54:55;97849.69;;;18.27;47.51
33163;BME280;29282;45.656;11.302;2022-12-17T04:57:39;97848.09;;;18.26;47.57
33163;BME280;29282;45.656;11.302;2022-12-17T05:00:22;97852.78;;;18.25;47.73
33163;BME280;29282;45.656;11.302;2022-12-17T05:03:12;97851.16;;;18.24;47.74
33163;BME280;29282;45.656;11.302;2022-12-17T05:05:57;97850.47;;;18.27;47.60
33163;BME280;29282;45.656;11.302;2022-12-17T05:08:41;97859.06;;;18.26;47.56
33163;BME280;29282;45.656;11.302;2022-12-17T05:11:25;97863.75;;;18.25;47.67
33163;BME280;29282;45.656;11.302;2022-12-17T05:14:13;97864.88;;;18.24;47.52
33163;BME280;29282;45.656;11.302;2022-12-17T05:16:57;97872.00;;;18.25;47.57
33163;BME280;29282;45.656;11.302;2022-12-17T05:19:41;97873.56;;;18.26;47.53
33163;BME280;29282;45.656;11.302;2022-12-17T05:22:25;97882.16;;;18.25;47.46
33163;BME280;29282;45.656;11.302;2022-12-17T05:25:09;97882.16;;;18.25;47.58
33163;BME280;29282;45.656;11.302;2022-12-17T05:27:53;97884.91;;;18.25;47.70
33163;BME280;29282;45.656;11.302;2022-12-17T05:30:37;97887.66;;;18.25;47.59
33163;BME280;29282;45.656;11.302;2022-12-17T05:33:21;97890.38;;;18.25;47.48
33163;BME280;29282;45.656;11.302;2022-12-17T05:36:05;97900.19;;;18.26;47.35
33163;BME280;29282;45.656;11.302;2022-12-17T05:38:49;97904.91;;;18.25;47.33
33163;BME280;29282;45.656;11.302;2022-12-17T05:41:33;97912.31;;;18.25;47.58
33163;BME280;29282;45.656;11.302;2022-12-17T05:44:18;97912.31;;;18.25;47.37
33163;BME280;29282;45.656;11.302;2022-12-17T05:47:02;97915.06;;;18.25;47.53
33163;BME280;29282;45.656;11.302;2022-12-17T05:49:46;97922.47;;;18.24;47.61
33163;BME280;29282;45.656;11.302;2022-12-17T05:52:30;97927.94;;;18.24;47.54
33163;BME280;29282;45.656;11.302;2022-12-17T05:55:14;97943.28;;;18.25;47.34
33163;BME280;29282;45.656;11.302;2022-12-17T05:58:08;97951.50;;;18.25;47.33
33163;BME280;29282;45.656;11.302;2022-12-17T06:00:57;97947.97;;;18.25;47.37
33163;BME280;29282;45.656;11.302;2022-12-17T06:03:41;97967.50;;;18.23;47.49
33163;BME280;29282;45.656;11.302;2022-12-17T06:06:25;97965.53;;;18.24;47.63
33163;BME280;29282;45.656;11.302;2022-12-17T06:09:09;97980.41;;;18.23;47.37
33163;BME280;29282;45.656;11.302;2022-12-17T06:11:53;97974.91;;;18.23;47.34
33163;BME280;29282;45.656;11.302;2022-12-17T06:14:37;97976.88;;;18.22;47.45
33163;BME280;29282;45.656;11.302;2022-12-17T06:17:21;97986.69;;;18.23;47.40
33163;BME280;29282;45.656;11.302;2022-12-17T06:20:05;97995.72;;;18.24;47.18
33163;BME280;29282;45.656;11.302;2022-12-17T06:23:19;97999.25;;;18.24;47.27
33163;BME280;29282;45.656;11.302;2022-12-17T06:26:03;98004.72;;;18.24;47.32
33163;BME280;29282;45.656;11.302;2022-12-17T06:28:47;98005.44;;;18.21;47.38
33163;BME280;29282;45.656;11.302;2022-12-17T06:31:31;98016.06;;;18.23;47.39
33163;BME280;29282;45.656;11.302;2022-12-17T06:34:15;98017.53;;;18.20;47.41
33163;BME280;29282;45.656;11.302;2022-12-17T06:36:59;98030.91;;;18.22;47.29
33163;BME280;29282;45.656;11.302;2022-12-17T06:39:43;98028.63;;;18.24;47.31
33163;BME280;29282;45.656;11.302;2022-12-17T06:42:27;98044.28;;;18.23;47.27
33163;BME280;29282;45.656;11.302;2022-12-17T06:45:10;98046.22;;;18.23;47.23
33163;BME280;29282;45.656;11.302;2022-12-17T06:48:02;98041.53;;;18.23;47.35
33163;BME280;29282;45.656;11.302;2022-12-17T06:50:46;98052.19;;;18.25;47.16
33163;BME280;29282;45.656;11.302;2022-12-17T06:53:31;98058.47;;;18.25;47.18
33163;BME280;29282;45.656;11.302;2022-12-17T06:56:15;98062.78;;;18.26;47.12
33163;BME280;29282;45.656;11.302;2022-12-17T06:58:59;98071.03;;;18.26;47.15
33163;BME280;29282;45.656;11.302;2022-12-17T07:01:43;98086.00;;;18.29;47.14
33163;BME280;29282;45.656;11.302;2022-12-17T07:04:26;98084.06;;;18.29;46.98
33163;BME280;29282;45.656;11.302;2022-12-17T07:07:10;98087.16;;;18.28;47.08
33163;BME280;29282;45.656;11.302;2022-12-17T07:09:55;98089.91;;;18.28;47.21
33163;BME280;29282;45.656;11.302;2022-12-17T07:12:39;98095.69;;;18.26;47.11
33163;BME280;29282;45.656;11.302;2022-12-17T07:15:23;98102.47;;;18.29;47.04
33163;BME280;29282;45.656;11.302;2022-12-17T07:18:07;98108.25;;;18.27;47.11
33163;BME280;29282;45.656;11.302;2022-12-17T07:20:52;98112.94;;;18.27;47.18
33163;BME280;29282;45.656;11.302;2022-12-17T07:23:36;98125.53;;;18.28;47.18
33163;BME280;29282;45.656;11.302;2022-12-17T07:26:20;98133.41;;;18.29;46.98
33163;BME280;29282;45.656;11.302;2022-12-17T07:29:05;98129.41;;;18.27;47.10
33163;BME280;29282;45.656;11.302;2022-12-17T07:31:49;98141.16;;;18.27;47.13
33163;BME280;29282;45.656;11.302;2022-12-17T07:34:33;98143.91;;;18.27;47.19
33163;BME280;29282;45.656;11.302;2022-12-17T07:37:17;98153.78;;;18.28;47.16
33163;BME280;29282;45.656;11.302;2022-12-17T07:40:01;98153.66;;;18.25;47.10
33163;BME280;29282;45.656;11.302;2022-12-17T07:42:45;98169.25;;;18.24;47.25
33163;BME280;29282;45.656;11.302;2022-12-17T07:45:29;98169.69;;;18.35;46.90
33163;BME280;29282;45.656;11.302;2022-12-17T07:48:13;98179.69;;;18.52;46.52
33163;BME280;29282;45.656;11.302;2022-12-17T07:50:57;98194.38;;;18.68;46.11
33163;BME280;29282;45.656;11.302;2022-12-17T07:53:41;98189.41;;;18.83;45.88
33163;BME280;29282;45.656;11.302;2022-12-17T07:56:25;98198.78;;;18.94;45.67
33163;BME280;29282;45.656;11.302;2022-12-17T07:59:09;98213.72;;;19.05;45.43
33163;BME280;29282;45.656;11.302;2022-12-17T08:01:53;98224.84;;;19.21;45.14
33163;BME280;29282;45.656;11.302;2022-12-17T08:04:37;98233.06;;;19.33;44.99
33163;BME280;29282;45.656;11.302;2022-12-17T08:07:21;98233.66;;;19.39;44.93
33163;BME280;29282;45.656;11.302;2022-12-17T08:10:05;98243.75;;;19.35;45.07
33163;BME280;29282;45.656;11.302;2022-12-17T08:12:58;98240.41;;;19.29;45.13
33163;BME280;29282;45.656;11.302;2022-12-17T08:15:42;98253.00;;;19.30;45.17
33163;BME280;29282;45.656;11.302;2022-12-17T08:18:26;98261.59;;;19.29;45.38
33163;BME280;29282;45.656;11.302;2022-12-17T08:21:11;98259.19;;;19.27;45.35
33163;BME280;29282;45.656;11.302;2022-12-17T08:23:55;98266.16;;;19.24;45.45
33163;BME280;29282;45.656;11.302;2022-12-17T08:26:39;98262.63;;;19.24;45.41
33163;BME280;29282;45.656;11.302;2022-12-17T08:29:23;98271.31;;;19.26;45.43
33163;BME280;29282;45.656;11.302;2022-12-17T08:32:07;98279.22;;;19.28;45.40
33163;BME280;29282;45.656;11.302;2022-12-17T08:34:51;98289.41;;;19.27;45.63
33163;BME280;29282;45.656;11.302;2022-12-17T08:37:35;98298.44;;;19.28;45.52
33163;BME280;29282;45.656;11.302;2022-12-17T08:40:20;98303.25;;;19.31;45.48
33163;BME280;29282;45.656;11.302;2022-12-17T08:43:03;98308.41;;;19.32;45.43
33163;BME280;29282;45.656;11.302;2022-12-17T08:45:49;98310.47;;;19.35;45.40
33163;BME280;29282;45.656;11.302;2022-12-17T08:48:33;98317.25;;;19.38;45.22
33163;BME280;29282;45.656;11.302;2022-12-17T08:51:17;98320.91;;;19.42;45.29
33163;BME280;29282;45.656;11.302;2022-12-17T08:54:01;98336.25;;;19.43;45.13
33163;BME280;29282;45.656;11.302;2022-12-17T08:56:46;98344.47;;;19.43;45.26
33163;BME280;29282;45.656;11.302;2022-12-17T08:59:30;98358.91;;;19.40;45.49
33163;BME280;29282;45.656;11.302;2022-12-17T09:02:13;98363.72;;;19.43;45.32
33163;BME280;29282;45.656;11.302;2022-12-17T09:04:57;98364.75;;;19.38;45.46
33163;BME280;29282;45.656;11.302;2022-12-17T09:07:41;98375.72;;;19.38;45.46
33163;BME280;29282;45.656;11.302;2022-12-17T09:10:25;98379.28;;;19.39;45.54
33163;BME280;29282;45.656;11.302;2022-12-17T09:13:10;98385.25;;;19.41;45.44
33163;BME280;29282;45.656;11.302;2022-12-17T09:15:54;98384.78;;;19.39;45.52
33163;BME280;29282;45.656;11.302;2022-12-17T09:18:39;98380.88;;;19.40;45.49
33163;BME280;29282;45.656;11.302;2022-12-17T09:21:23;98380.88;;;19.40;45.52
33163;BME280;29282;45.656;11.302;2022-12-17T09:24:09;98389.47;;;19.38;45.68
33163;BME280;29282;45.656;11.302;2022-12-17T09:26:53;98393.81;;;19.39;45.64
33163;BME280;29282;45.656;11.302;2022-12-17T09:29:37;98401.75;;;19.41;45.65
33163;BME280;29282;45.656;11.302;2022-12-17T09:32:21;98400.78;;;19.37;45.78
33163;BME280;29282;45.656;11.302;2022-12-17T09:35:05;98399.97;;;19.36;45.63
33163;BME280;29282;45.656;11.302;2022-12-17T09:37:51;98406.28;;;19.37;45.85
33163;BME280;29282;45.656;11.302;2022-12-17T09:40:36;98407.91;;;19.38;45.89
33163;BME280;29282;45.656;11.302;2022-12-17T09:46:34;98415.34;;;19.37;45.91
33163;BME280;29282;45.656;11.302;2022-12-17T09:49:23;98416.47;;;19.36;45.91
33163;BME280;29282;45.656;11.302;2022-12-17T09:55:42;98420.97;;;19.41;45.94
33163;BME280;29282;45.656;11.302;2022-12-17T09:58:35;98420.50;;;19.39;45.87
33163;BME280;29282;45.656;11.302;2022-12-17T10:01:23;98420.16;;;19.40;45.93
33163;BME280;29282;45.656;11.302;2022-12-17T10:04:59;98423.72;;;19.41;45.90
33163;BME280;29282;45.656;11.302;2022-12-17T10:07:27;98420.63;;;19.42;45.75
33163;BME280;29282;45.656;11.302;2022-12-17T10:10:24;98431.28;;;19.44;45.78
33163;BME280;29282;45.656;11.302;2022-12-17T10:13:10;98437.91;;;19.43;45.88
33163;BME280;29282;45.656;11.302;2022-12-17T10:19:02;98437.91;;;19.43;45.92
33163;BME280;29282;45.656;11.302;2022-12-17T10:21:46;98440.66;;;19.43;45.95
33163;BME280;29282;45.656;11.302;2022-12-17T10:24:30;98437.91;;;19.43;45.95
33163;BME280;29282;45.656;11.302;2022-12-17T10:27:18;98444.91;;;19.53;45.78
33163;BME280;29282;45.656;11.302;2022-12-17T10:30:03;98458.78;;;19.56;45.83
33163;BME280;29282;45.656;11.302;2022-12-17T10:32:55;98465.91;;;19.57;46.00
33163;BME280;29282;45.656;11.302;2022-12-17T10:35:39;98461.81;;;19.63;45.80
33163;BME280;29282;45.656;11.302;2022-12-17T10:38:28;98461.50;;;19.65;45.92
33163;BME280;29282;45.656;11.302;2022-12-17T10:41:34;98474.09;;;19.66;46.02
33163;BME280;29282;45.656;11.302;2022-12-17T10:44:19;98479.72;;;19.69;46.24
33163;BME280;29282;45.656;11.302;2022-12-17T10:47:03;98475.38;;;19.68;46.06
33163;BME280;29282;45.656;11.302;2022-12-17T10:49:59;98479.84;;;19.73;46.12
33163;BME280;29282;45.656;11.302;2022-12-17T10:52:44;98477.75;;;19.70;46.26
33163;BME280;29282;45.656;11.302;2022-12-17T10:55:30;98480.88;;;19.68;46.29
33163;BME280;29282;45.656;11.302;2022-12-17T10:58:19;98483.06;;;19.75;46.35
33163;BME280;29282;45.656;11.302;2022-12-17T11:01:04;98489.84;;;19.78;46.40
33163;BME280;29282;45.656;11.302;2022-12-17T11:03:55;98487.09;;;19.78;46.59
33163;BME280;29282;45.656;11.302;2022-12-17T11:06:56;98494.19;;;19.79;46.31
33163;BME280;29282;45.656;11.302;2022-12-17T11:09:43;98497.72;;;19.79;46.52
33163;BME280;29282;45.656;11.302;2022-12-17T11:12:35;98504.50;;;19.82;46.50
33163;BME280;29282;45.656;11.302;2022-12-17T11:15:35;98512.09;;;19.85;46.54
33163;BME280;29282;45.656;11.302;2022-12-17T11:18:29;98500.28;;;19.84;46.39
33163;BME280;29282;45.656;11.302;2022-12-17T11:21:20;98504.84;;;19.80;46.42
33163;BME280;29282;45.656;11.302;2022-12-17T11:24:11;98500.84;;;19.78;46.40
33163;BME280;29282;45.656;11.302;2022-12-17T11:26:57;98500.47;;;19.79;46.25
33163;BME280;29282;45.656;11.302;2022-12-17T11:29:42;98511.59;;;19.83;46.33
33163;BME280;29282;45.656;11.302;2022-12-17T11:32:58;98509.34;;;19.85;46.16
33163;BME280;29282;45.656;11.302;2022-12-17T11:35:52;98510.13;;;19.85;46.38
33163;BME280;29282;45.656;11.302;2022-12-17T11:38:50;98510.13;;;19.85;46.48
33163;BME280;29282;45.656;11.302;2022-12-17T11:41:39;98506.59;;;19.85;46.36
33163;BME280;29282;45.656;11.302;2022-12-17T11:47:42;98504.97;;;19.84;46.38
33163;BME280;29282;45.656;11.302;2022-12-17T11:50:37;98509.81;;;19.87;46.05
33163;BME280;29282;45.656;11.302;2022-12-17T11:53:42;98514.84;;;19.85;46.18
33163;BME280;29282;45.656;11.302;2022-12-17T11:56:48;98513.69;;;19.86;46.30
33163;BME280;29282;45.656;11.302;2022-12-17T11:59:52;98512.75;;;19.82;46.31
33163;BME280;29282;45.656;11.302;2022-12-17T12:06:08;98522.59;;;19.83;46.23
33163;BME280;29282;45.656;11.302;2022-12-17T12:15:16;98526.88;;;19.92;46.08
33163;BME280;29282;45.656;11.302;2022-12-17T12:18:17;98521.97;;;19.98;45.73
33163;BME280;29282;45.656;11.302;2022-12-17T12:21:23;98516.13;;;20.00;45.92
33163;BME280;29282;45.656;11.302;2022-12-17T12:24:30;98524.25;;;19.96;46.04
33163;BME280;29282;45.656;11.302;2022-12-17T12:30:37;98533.78;;;19.99;45.96
33163;BME280;29282;45.656;11.302;2022-12-17T12:33:37;98532.50;;;19.96;45.95
33163;BME280;29282;45.656;11.302;2022-12-17T12:36:25;98542.03;;;19.99;46.04
33163;BME280;29282;45.656;11.302;2022-12-17T12:39:12;98538.34;;;19.94;46.07
33163;BME280;29282;45.656;11.302;2022-12-17T12:51:03;98532.94;;;19.86;46.15
33163;BME280;29282;45.656;11.302;2022-12-17T12:53:57;98534.56;;;19.87;46.56
33163;BME280;29282;45.656;11.302;2022-12-17T12:56:41;98535.22;;;19.84;46.21
33163;BME280;29282;45.656;11.302;2022-12-17T12:59:33;98543.78;;;19.82;46.23
33163;BME280;29282;45.656;11.302;2022-12-17T13:02:28;98542.19;;;19.81;46.22
33163;BME280;29282;45.656;11.302;2022-12-17T13:05:24;98545.28;;;19.80;46.36
33163;BME280;29282;45.656;11.302;2022-12-17T13:10:30;98544.81;;;19.78;46.31
33163;BME280;29282;45.656;11.302;2022-12-17T13:12:59;98548.69;;;19.77;46.25
33163;BME280;29282;45.656;11.302;2022-12-17T13:15:39;98564.38;;;19.76;46.32
33163;BME280;29282;45.656;11.302;2022-12-17T13:18:28;98564.88;;;19.78;46.19
33163;BME280;29282;45.656;11.302;2022-12-17T13:21:03;98564.88;;;19.78;46.28
33163;BME280;29282;45.656;11.302;2022-12-17T13:23:35;98572.75;;;19.80;46.20
33163;BME280;29282;45.656;11.302;2022-12-17T13:28:47;98585.38;;;19.81;46.28
33163;BME280;29282;45.656;11.302;2022-12-17T13:31:16;98586.50;;;19.80;46.34
33163;BME280;29282;45.656;11.302;2022-12-17T13:34:11;98587.78;;;19.82;46.15
33163;BME280;29282;45.656;11.302;2022-12-17T13:36:55;98591.34;;;19.83;46.12
33163;BME280;29282;45.656;11.302;2022-12-17T13:42:39;98596.66;;;19.88;46.07
33163;BME280;29282;45.656;11.302;2022-12-17T13:45:05;98589.53;;;19.87;46.32
33163;BME280;29282;45.656;11.302;2022-12-17T13:47:33;98600.19;;;19.88;46.24
33163;BME280;29282;45.656;11.302;2022-12-17T13:50:01;98600.69;;;19.90;46.10
33163;BME280;29282;45.656;11.302;2022-12-17T13:52:28;98603.75;;;19.89;46.21
33163;BME280;29282;45.656;11.302;2022-12-17T13:55:07;98602.94;;;19.88;46.25
33163;BME280;29282;45.656;11.302;2022-12-17T13:57:35;98603.75;;;19.89;46.19
33163;BME280;29282;45.656;11.302;2022-12-17T14:00:01;98611.19;;;19.88;46.23
33163;BME280;29282;45.656;11.302;2022-12-17T14:02:35;98607.66;;;19.88;46.40
33163;BME280;29282;45.656;11.302;2022-12-17T14:05:05;98618.66;;;19.88;46.26
33163;BME280;29282;45.656;11.302;2022-12-17T14:07:33;98623.66;;;19.86;46.32
33163;BME280;29282;45.656;11.302;2022-12-17T14:10:01;98628.03;;;19.87;46.12
33163;BME280;29282;45.656;11.302;2022-12-17T14:12:27;98635.13;;;19.88;46.15
33163;BME280;29282;45.656;11.302;2022-12-17T14:14:56;98629.66;;;19.88;46.28
33163;BME280;29282;45.656;11.302;2022-12-17T14:17:46;98641.78;;;19.87;46.25
33163;BME280;29282;45.656;11.302;2022-12-17T14:20:20;98646.13;;;19.88;46.25
33163;BME280;29282;45.656;11.302;2022-12-17T14:22:49;98646.94;;;19.88;46.35
33163;BME280;29282;45.656;11.302;2022-12-17T14:25:22;98659.88;;;19.88;46.32
33163;BME280;29282;45.656;11.302;2022-12-17T14:28:06;98668.59;;;19.90;46.38
33163;BME280;29282;45.656;11.302;2022-12-17T14:30:42;98679.59;;;19.90;46.38
33163;BME280;29282;45.656;11.302;2022-12-17T14:33:43;98677.00;;;19.93;46.28
33163;BME280;29282;45.656;11.302;2022-12-17T14:38:50;98688.00;;;19.93;46.36
33163;BME280;29282;45.656;11.302;2022-12-17T14:41:17;98684.44;;;19.93;46.21
33163;BME280;29282;45.656;11.302;2022-12-17T14:44:03;98685.56;;;19.92;46.16
33163;BME280;29282;45.656;11.302;2022-12-17T14:46:30;98694.63;;;19.92;46.30
33163;BME280;29282;45.656;11.302;2022-12-17T14:48:57;98702.06;;;19.92;46.15
33163;BME280;29282;45.656;11.302;2022-12-17T14:51:36;98701.41;;;19.95;46.28
33163;BME280;29282;45.656;11.302;2022-12-17T14:56:45;98714.34;;;19.94;46.33
33163;BME280;29282;45.656;11.302;2022-12-17T14:59:35;98714.66;;;19.93;46.26
33163;BME280;29282;45.656;11.302;2022-12-17T15:02:22;98717.09;;;19.94;46.37
33163;BME280;29282;45.656;11.302;2022-12-17T15:04:52;98719.06;;;19.94;46.42
33163;BME280;29282;45.656;11.302;2022-12-17T15:07:26;98725.00;;;19.96;46.53
33163;BME280;29282;45.656;11.302;2022-12-17T15:09:54;98720.66;;;19.95;46.36
33163;BME280;29282;45.656;11.302;2022-12-17T15:12:21;98728.09;;;19.94;46.58
33163;BME280;29282;45.656;11.302;2022-12-17T15:14:46;98728.44;;;19.93;46.42
33163;BME280;29282;45.656;11.302;2022-12-17T15:17:12;98730.50;;;19.96;46.51
33163;BME280;29282;45.656;11.302;2022-12-17T15:19:38;98732.47;;;19.95;46.42